sensor_id;sensor_type;location;lat;lon;timestamp;temperature;humidity
1786;DHT22;890;48.158;11.540;2023-11-19T00:02:21;6.10;99.90
1786;DHT22;890;48.158;11.540;2023-11-19T00:04:47;6.10;99.90
1786;DHT22;890;48.158;11.540;2023-11-19T00:07:13;6.20;99.90
1786;DHT22;890;48.158;11.540;2023-11-19T00:09:39;6.30;99.90
1786;DHT22;890;48.158;11.540;2023-11-19T00:12:06;6.40;99.90
1786;DHT22;890;48.158;11.540;2023-11-19T00:14:32;6.40;99.90
1786;DHT22;890;48.158;11.540;2023-11-19T00:16:57;6.40;99.90
1786;DHT22;890;48.158;11.540;2023-11-19T00:19:23;6.30;99.90
1786;DHT22;890;48.158;11.540;2023-11-19T00:21:48;6.30;99.90
1786;DHT22;890;48.158;11.540;2023-11-19T00:24:14;6.40;99.90
1786;DHT22;890;48.158;11.540;2023-11-19T00:26:42;6.40;99.90
1786;DHT22;890;48.158;11.540;2023-11-19T00:29:08;6.50;99.90
1786;DHT22;890;48.158;11.540;2023-11-19T00:31:34;6.40;99.90
1786;DHT22;890;48.158;11.540;2023-11-19T00:34:00;6.40;99.90
1786;DHT22;890;48.158;11.540;2023-11-19T00:36:27;6.50;99.90
1786;DHT22;890;48.158;11.540;2023-11-19T00:38:52;6.50;99.90
1786;DHT22;890;48.158;11.540;2023-11-19T00:41:18;6.60;99.90
1786;DHT22;890;48.158;11.540;2023-11-19T00:43:44;6.70;99.90
1786;DHT22;890;48.158;11.540;2023-11-19T00:46:09;8.40;99.90
1786;DHT22;890;48.158;11.540;2023-11-19T00:48:36;6.90;99.90
1786;DHT22;890;48.158;11.540;2023-11-19T00:51:02;6.90;99.90
1786;DHT22;890;48.158;11.540;2023-11-19T00:53:29;6.90;99.90
1786;DHT22;890;48.158;11.540;2023-11-19T00:55:55;7.00;99.90
1786;DHT22;890;48.158;11.540;2023-11-19T00:58:20;7.00;99.90
1786;DHT22;890;48.158;11.540;2023-11-19T01:00:46;7.10;99.90
1786;DHT22;890;48.158;11.540;2023-11-19T01:03:12;7.10;99.90
1786;DHT22;890;48.158;11.540;2023-11-19T01:05:38;7.10;99.90
1786;DHT22;890;48.158;11.540;2023-11-19T01:08:04;7.10;99.90
1786;DHT22;890;48.158;11.540;2023-11-19T01:10:30;7.10;99.90
1786;DHT22;890;48.158;11.540;2023-11-19T01:12:56;7.10;99.90
1786;DHT22;890;48.158;11.540;2023-11-19T01:15:23;7.10;99.90
1786;DHT22;890;48.158;11.540;2023-11-19T01:17:48;7.10;99.90
1786;DHT22;890;48.158;11.540;2023-11-19T01:20:14;7.00;99.90
1786;DHT22;890;48.158;11.540;2023-11-19T01:22:40;7.00;99.90
1786;DHT22;890;48.158;11.540;2023-11-19T01:25:06;6.90;99.90
1786;DHT22;890;48.158;11.540;2023-11-19T01:27:32;6.90;99.90
1786;DHT22;890;48.158;11.540;2023-11-19T01:30:00;6.90;99.90
1786;DHT22;890;48.158;11.540;2023-11-19T01:32:29;6.90;99.90
1786;DHT22;890;48.158;11.540;2023-11-19T01:34:54;7.00;99.90
1786;DHT22;890;48.158;11.540;2023-11-19T01:37:20;7.00;99.90
1786;DHT22;890;48.158;11.540;2023-11-19T01:39:45;7.00;99.90
1786;DHT22;890;48.158;11.540;2023-11-19T01:42:11;7.00;99.90
1786;DHT22;890;48.158;11.540;2023-11-19T01:44:37;7.00;99.90
1786;DHT22;890;48.158;11.540;2023-11-19T01:47:03;7.00;99.90
1786;DHT22;890;48.158;11.540;2023-11-19T01:49:31;7.00;99.90
1786;DHT22;890;48.158;11.540;2023-11-19T01:51:57;7.00;99.90
1786;DHT22;890;48.158;11.540;2023-11-19T01:54:23;7.10;99.90
1786;DHT22;890;48.158;11.540;2023-11-19T01:56:49;7.20;99.90
1786;DHT22;890;48.158;11.540;2023-11-19T01:59:15;7.30;99.90
1786;DHT22;890;48.158;11.540;2023-11-19T02:01:41;7.40;99.90
1786;DHT22;890;48.158;11.540;2023-11-19T02:04:08;7.40;99.90
1786;DHT22;890;48.158;11.540;2023-11-19T02:06:40;7.40;99.90
1786;DHT22;890;48.158;11.540;2023-11-19T02:09:06;7.50;99.90
1786;DHT22;890;48.158;11.540;2023-11-19T02:11:34;7.60;99.90
1786;DHT22;890;48.158;11.540;2023-11-19T02:14:00;7.60;99.90
1786;DHT22;890;48.158;11.540;2023-11-19T02:16:26;7.70;99.90
1786;DHT22;890;48.158;11.540;2023-11-19T02:18:53;7.70;99.90
1786;DHT22;890;48.158;11.540;2023-11-19T02:21:18;7.70;99.90
1786;DHT22;890;48.158;11.540;2023-11-19T02:23:45;7.80;99.90
1786;DHT22;890;48.158;11.540;2023-11-19T02:26:28;7.80;99.90
1786;DHT22;890;48.158;11.540;2023-11-19T02:28:55;7.80;99.90
1786;DHT22;890;48.158;11.540;2023-11-19T02:31:21;8.00;99.90
1786;DHT22;890;48.158;11.540;2023-11-19T02:33:48;8.10;99.90
1786;DHT22;890;48.158;11.540;2023-11-19T02:36:15;8.20;99.90
1786;DHT22;890;48.158;11.540;2023-11-19T02:38:42;8.20;99.90
1786;DHT22;890;48.158;11.540;2023-11-19T02:41:07;8.20;99.90
1786;DHT22;890;48.158;11.540;2023-11-19T02:43:34;8.30;99.90
1786;DHT22;890;48.158;11.540;2023-11-19T02:46:04;8.40;99.90
1786;DHT22;890;48.158;11.540;2023-11-19T02:48:33;8.40;99.90
1786;DHT22;890;48.158;11.540;2023-11-19T02:51:01;8.50;99.90
1786;DHT22;890;48.158;11.540;2023-11-19T02:53:29;8.60;99.90
1786;DHT22;890;48.158;11.540;2023-11-19T02:55:55;8.60;99.90
1786;DHT22;890;48.158;11.540;2023-11-19T02:58:31;8.70;99.90
1786;DHT22;890;48.158;11.540;2023-11-19T03:00:57;8.80;99.90
1786;DHT22;890;48.158;11.540;2023-11-19T03:03:25;8.80;99.90
1786;DHT22;890;48.158;11.540;2023-11-19T03:05:57;8.90;99.90
1786;DHT22;890;48.158;11.540;2023-11-19T03:08:22;9.00;99.90
1786;DHT22;890;48.158;11.540;2023-11-19T03:10:48;9.00;99.90
1786;DHT22;890;48.158;11.540;2023-11-19T03:13:14;9.10;99.90
1786;DHT22;890;48.158;11.540;2023-11-19T03:15:41;9.10;99.90
1786;DHT22;890;48.158;11.540;2023-11-19T03:18:07;9.10;99.90
1786;DHT22;890;48.158;11.540;2023-11-19T03:20:33;9.20;99.90
1786;DHT22;890;48.158;11.540;2023-11-19T03:22:58;9.20;99.90
1786;DHT22;890;48.158;11.540;2023-11-19T03:25:25;9.20;99.90
1786;DHT22;890;48.158;11.540;2023-11-19T03:28:00;9.30;99.90
1786;DHT22;890;48.158;11.540;2023-11-19T03:30:29;9.30;99.90
1786;DHT22;890;48.158;11.540;2023-11-19T03:32:57;9.40;99.90
1786;DHT22;890;48.158;11.540;2023-11-19T03:35:24;9.40;99.90
1786;DHT22;890;48.158;11.540;2023-11-19T03:37:50;9.50;99.90
1786;DHT22;890;48.158;11.540;2023-11-19T03:40:17;9.60;99.90
1786;DHT22;890;48.158;11.540;2023-11-19T03:42:44;9.60;99.90
1786;DHT22;890;48.158;11.540;2023-11-19T03:45:10;9.70;99.90
1786;DHT22;890;48.158;11.540;2023-11-19T03:47:36;9.70;99.90
1786;DHT22;890;48.158;11.540;2023-11-19T03:50:02;9.80;99.90
1786;DHT22;890;48.158;11.540;2023-11-19T03:52:28;9.80;99.90
1786;DHT22;890;48.158;11.540;2023-11-19T03:54:57;9.80;99.90
1786;DHT22;890;48.158;11.540;2023-11-19T03:57:23;9.90;99.90
1786;DHT22;890;48.158;11.540;2023-11-19T03:59:49;9.90;99.90
1786;DHT22;890;48.158;11.540;2023-11-19T04:02:15;10.00;99.90
1786;DHT22;890;48.158;11.540;2023-11-19T04:04:41;10.00;99.90
1786;DHT22;890;48.158;11.540;2023-11-19T04:07:07;10.00;99.90
1786;DHT22;890;48.158;11.540;2023-11-19T04:09:33;10.10;99.90
1786;DHT22;890;48.158;11.540;2023-11-19T04:11:59;10.10;99.90
1786;DHT22;890;48.158;11.540;2023-11-19T04:14:26;10.10;99.90
1786;DHT22;890;48.158;11.540;2023-11-19T04:16:52;10.10;99.90
1786;DHT22;890;48.158;11.540;2023-11-19T04:19:18;10.20;99.90
1786;DHT22;890;48.158;11.540;2023-11-19T04:21:44;10.20;99.90
1786;DHT22;890;48.158;11.540;2023-11-19T04:24:10;10.20;99.90
1786;DHT22;890;48.158;11.540;2023-11-19T04:26:43;10.30;99.90
1786;DHT22;890;48.158;11.540;2023-11-19T04:29:13;10.30;99.90
1786;DHT22;890;48.158;11.540;2023-11-19T04:31:40;10.30;99.90
1786;DHT22;890;48.158;11.540;2023-11-19T04:34:06;10.30;99.90
1786;DHT22;890;48.158;11.540;2023-11-19T04:36:32;10.30;99.90
1786;DHT22;890;48.158;11.540;2023-11-19T04:38:58;10.40;99.90
1786;DHT22;890;48.158;11.540;2023-11-19T04:41:25;10.40;99.90
1786;DHT22;890;48.158;11.540;2023-11-19T04:43:50;10.40;99.90
1786;DHT22;890;48.158;11.540;2023-11-19T04:46:16;10.40;99.90
1786;DHT22;890;48.158;11.540;2023-11-19T04:48:42;10.50;99.90
1786;DHT22;890;48.158;11.540;2023-11-19T04:51:07;10.50;99.90
1786;DHT22;890;48.158;11.540;2023-11-19T04:53:35;10.50;99.90
1786;DHT22;890;48.158;11.540;2023-11-19T04:56:00;10.50;99.90
1786;DHT22;890;48.158;11.540;2023-11-19T04:58:26;10.50;99.90
1786;DHT22;890;48.158;11.540;2023-11-19T05:00:54;10.50;99.90
1786;DHT22;890;48.158;11.540;2023-11-19T05:03:19;10.60;99.90
1786;DHT22;890;48.158;11.540;2023-11-19T05:05:45;10.60;99.90
1786;DHT22;890;48.158;11.540;2023-11-19T05:08:10;10.60;99.90
1786;DHT22;890;48.158;11.540;2023-11-19T05:10:36;10.60;99.90
1786;DHT22;890;48.158;11.540;2023-11-19T05:13:02;10.60;99.90
1786;DHT22;890;48.158;11.540;2023-11-19T05:15:28;10.60;99.90
1786;DHT22;890;48.158;11.540;2023-11-19T05:17:53;10.60;99.90
1786;DHT22;890;48.158;11.540;2023-11-19T05:20:19;10.60;99.90
1786;DHT22;890;48.158;11.540;2023-11-19T05:22:44;10.60;99.90
1786;DHT22;890;48.158;11.540;2023-11-19T05:25:11;10.60;99.90
1786;DHT22;890;48.158;11.540;2023-11-19T05:27:37;10.50;99.90
1786;DHT22;890;48.158;11.540;2023-11-19T05:30:04;10.50;99.90
1786;DHT22;890;48.158;11.540;2023-11-19T05:32:32;10.40;99.90
1786;DHT22;890;48.158;11.540;2023-11-19T05:34:58;10.40;99.90
1786;DHT22;890;48.158;11.540;2023-11-19T05:37:24;10.40;99.90
1786;DHT22;890;48.158;11.540;2023-11-19T05:39:50;10.40;99.90
1786;DHT22;890;48.158;11.540;2023-11-19T05:42:16;10.50;99.90
1786;DHT22;890;48.158;11.540;2023-11-19T05:44:42;10.50;99.90
1786;DHT22;890;48.158;11.540;2023-11-19T05:47:08;10.50;99.90
1786;DHT22;890;48.158;11.540;2023-11-19T05:49:33;10.50;99.90
1786;DHT22;890;48.158;11.540;2023-11-19T05:51:59;10.50;99.90
1786;DHT22;890;48.158;11.540;2023-11-19T05:54:24;10.50;99.90
1786;DHT22;890;48.158;11.540;2023-11-19T05:56:51;10.50;99.90
1786;DHT22;890;48.158;11.540;2023-11-19T05:59:19;10.50;99.90
1786;DHT22;890;48.158;11.540;2023-11-19T06:01:45;10.50;99.90
1786;DHT22;890;48.158;11.540;2023-11-19T06:04:11;10.40;99.90
1786;DHT22;890;48.158;11.540;2023-11-19T06:06:36;10.40;99.90
1786;DHT22;890;48.158;11.540;2023-11-19T06:09:03;10.40;99.90
1786;DHT22;890;48.158;11.540;2023-11-19T06:11:29;10.40;99.90
1786;DHT22;890;48.158;11.540;2023-11-19T06:13:54;10.40;99.90
1786;DHT22;890;48.158;11.540;2023-11-19T06:16:20;10.40;99.90
1786;DHT22;890;48.158;11.540;2023-11-19T06:18:46;10.50;99.90
1786;DHT22;890;48.158;11.540;2023-11-19T06:21:12;10.50;99.90
1786;DHT22;890;48.158;11.540;2023-11-19T06:23:37;10.50;99.90
1786;DHT22;890;48.158;11.540;2023-11-19T06:26:03;10.60;99.90
1786;DHT22;890;48.158;11.540;2023-11-19T06:28:30;10.60;99.90
1786;DHT22;890;48.158;11.540;2023-11-19T06:30:56;10.60;99.90
1786;DHT22;890;48.158;11.540;2023-11-19T06:33:26;10.60;99.90
1786;DHT22;890;48.158;11.540;2023-11-19T06:35:52;10.60;99.90
1786;DHT22;890;48.158;11.540;2023-11-19T06:38:18;10.70;99.90
1786;DHT22;890;48.158;11.540;2023-11-19T06:40:44;10.70;99.90
1786;DHT22;890;48.158;11.540;2023-11-19T06:43:09;10.80;99.90
1786;DHT22;890;48.158;11.540;2023-11-19T06:45:35;10.80;99.90
1786;DHT22;890;48.158;11.540;2023-11-19T06:48:02;10.80;99.90
1786;DHT22;890;48.158;11.540;2023-11-19T06:50:30;10.80;99.90
1786;DHT22;890;48.158;11.540;2023-11-19T06:52:55;10.90;99.90
1786;DHT22;890;48.158;11.540;2023-11-19T06:55:21;10.90;99.90
1786;DHT22;890;48.158;11.540;2023-11-19T06:57:46;10.90;99.90
1786;DHT22;890;48.158;11.540;2023-11-19T07:00:12;11.00;99.90
1786;DHT22;890;48.158;11.540;2023-11-19T07:02:38;11.00;99.90
1786;DHT22;890;48.158;11.540;2023-11-19T07:05:05;11.10;99.90
1786;DHT22;890;48.158;11.540;2023-11-19T07:07:31;11.10;99.90
1786;DHT22;890;48.158;11.540;2023-11-19T07:09:57;11.10;99.90
1786;DHT22;890;48.158;11.540;2023-11-19T07:12:23;11.20;99.90
1786;DHT22;890;48.158;11.540;2023-11-19T07:14:49;11.20;99.90
1786;DHT22;890;48.158;11.540;2023-11-19T07:17:15;11.20;99.90
1786;DHT22;890;48.158;11.540;2023-11-19T07:19:40;11.30;99.90
1786;DHT22;890;48.158;11.540;2023-11-19T07:22:06;11.30;99.90
1786;DHT22;890;48.158;11.540;2023-11-19T07:24:32;11.30;99.90
1786;DHT22;890;48.158;11.540;2023-11-19T07:26:58;11.40;99.90
1786;DHT22;890;48.158;11.540;2023-11-19T07:29:23;11.50;99.90
1786;DHT22;890;48.158;11.540;2023-11-19T07:31:49;11.60;99.90
1786;DHT22;890;48.158;11.540;2023-11-19T07:34:15;11.60;99.90
1786;DHT22;890;48.158;11.540;2023-11-19T07:36:41;11.60;99.90
1786;DHT22;890;48.158;11.540;2023-11-19T07:39:06;11.60;99.90
1786;DHT22;890;48.158;11.540;2023-11-19T07:41:32;11.70;99.90
1786;DHT22;890;48.158;11.540;2023-11-19T07:43:58;11.70;99.90
1786;DHT22;890;48.158;11.540;2023-11-19T07:46:24;11.70;99.90
1786;DHT22;890;48.158;11.540;2023-11-19T07:48:50;11.70;99.90
1786;DHT22;890;48.158;11.540;2023-11-19T07:51:16;11.70;99.90
1786;DHT22;890;48.158;11.540;2023-11-19T07:53:41;11.80;99.90
1786;DHT22;890;48.158;11.540;2023-11-19T07:56:08;11.80;99.90
1786;DHT22;890;48.158;11.540;2023-11-19T07:58:33;11.80;99.90
1786;DHT22;890;48.158;11.540;2023-11-19T08:01:00;11.80;99.90
1786;DHT22;890;48.158;11.540;2023-11-19T08:03:25;11.90;99.90
1786;DHT22;890;48.158;11.540;2023-11-19T08:05:51;11.90;99.90
1786;DHT22;890;48.158;11.540;2023-11-19T08:08:17;11.90;99.90
1786;DHT22;890;48.158;11.540;2023-11-19T08:10:43;12.00;99.90
1786;DHT22;890;48.158;11.540;2023-11-19T08:13:10;12.00;99.90
1786;DHT22;890;48.158;11.540;2023-11-19T08:15:36;12.00;99.90
1786;DHT22;890;48.158;11.540;2023-11-19T08:18:01;12.00;99.90
1786;DHT22;890;48.158;11.540;2023-11-19T08:20:27;12.10;99.90
1786;DHT22;890;48.158;11.540;2023-11-19T08:22:53;12.10;99.90
1786;DHT22;890;48.158;11.540;2023-11-19T08:25:19;13.20;99.90
1786;DHT22;890;48.158;11.540;2023-11-19T08:27:44;12.20;99.90
1786;DHT22;890;48.158;11.540;2023-11-19T08:30:10;12.20;99.90
1786;DHT22;890;48.158;11.540;2023-11-19T08:32:36;12.30;99.90
1786;DHT22;890;48.158;11.540;2023-11-19T08:35:01;12.30;99.90
1786;DHT22;890;48.158;11.540;2023-11-19T08:37:27;12.30;99.90
1786;DHT22;890;48.158;11.540;2023-11-19T08:39:53;12.30;99.90
1786;DHT22;890;48.158;11.540;2023-11-19T08:42:19;12.30;99.90
1786;DHT22;890;48.158;11.540;2023-11-19T08:44:49;12.30;99.90
1786;DHT22;890;48.158;11.540;2023-11-19T08:47:18;12.30;99.90
1786;DHT22;890;48.158;11.540;2023-11-19T08:49:44;12.40;99.90
1786;DHT22;890;48.158;11.540;2023-11-19T08:52:10;12.40;99.90
1786;DHT22;890;48.158;11.540;2023-11-19T08:54:36;12.40;99.90
1786;DHT22;890;48.158;11.540;2023-11-19T08:57:03;12.50;99.90
1786;DHT22;890;48.158;11.540;2023-11-19T08:59:29;12.60;99.90
1786;DHT22;890;48.158;11.540;2023-11-19T09:01:55;12.60;99.90
1786;DHT22;890;48.158;11.540;2023-11-19T09:04:20;12.60;99.90
1786;DHT22;890;48.158;11.540;2023-11-19T09:06:49;12.60;99.90
1786;DHT22;890;48.158;11.540;2023-11-19T09:09:15;12.70;99.90
1786;DHT22;890;48.158;11.540;2023-11-19T09:11:41;12.70;99.90
1786;DHT22;890;48.158;11.540;2023-11-19T09:14:06;12.80;99.90
1786;DHT22;890;48.158;11.540;2023-11-19T09:16:32;12.80;99.90
1786;DHT22;890;48.158;11.540;2023-11-19T09:18:58;12.80;99.90
1786;DHT22;890;48.158;11.540;2023-11-19T09:21:28;12.90;99.90
1786;DHT22;890;48.158;11.540;2023-11-19T09:23:56;12.80;99.90
1786;DHT22;890;48.158;11.540;2023-11-19T09:26:22;12.90;99.90
1786;DHT22;890;48.158;11.540;2023-11-19T09:28:48;12.90;99.90
1786;DHT22;890;48.158;11.540;2023-11-19T09:31:17;12.90;99.90
1786;DHT22;890;48.158;11.540;2023-11-19T09:33:43;13.00;99.90
1786;DHT22;890;48.158;11.540;2023-11-19T09:36:09;13.00;99.90
1786;DHT22;890;48.158;11.540;2023-11-19T09:38:37;13.10;99.90
1786;DHT22;890;48.158;11.540;2023-11-19T09:41:06;13.00;99.90
1786;DHT22;890;48.158;11.540;2023-11-19T09:43:35;13.10;99.90
1786;DHT22;890;48.158;11.540;2023-11-19T09:46:09;13.00;99.90
1786;DHT22;890;48.158;11.540;2023-11-19T09:48:37;12.80;99.90
1786;DHT22;890;48.158;11.540;2023-11-19T09:51:04;12.70;99.90
1786;DHT22;890;48.158;11.540;2023-11-19T09:53:31;12.60;99.90
1786;DHT22;890;48.158;11.540;2023-11-19T09:55:58;12.70;99.90
1786;DHT22;890;48.158;11.540;2023-11-19T09:58:25;12.80;99.90
1786;DHT22;890;48.158;11.540;2023-11-19T10:00:51;12.90;99.90
1786;DHT22;890;48.158;11.540;2023-11-19T10:03:17;13.10;99.90
1786;DHT22;890;48.158;11.540;2023-11-19T10:05:43;13.20;99.90
1786;DHT22;890;48.158;11.540;2023-11-19T10:08:09;13.40;99.90
1786;DHT22;890;48.158;11.540;2023-11-19T10:10:36;13.50;99.90
1786;DHT22;890;48.158;11.540;2023-11-19T10:13:02;13.60;99.90
1786;DHT22;890;48.158;11.540;2023-11-19T10:15:28;13.70;99.90
1786;DHT22;890;48.158;11.540;2023-11-19T10:17:59;13.80;99.90
1786;DHT22;890;48.158;11.540;2023-11-19T10:20:25;13.80;99.90
1786;DHT22;890;48.158;11.540;2023-11-19T10:22:54;12.40;99.90
1786;DHT22;890;48.158;11.540;2023-11-19T10:25:22;13.80;99.90
1786;DHT22;890;48.158;11.540;2023-11-19T10:27:49;14.30;99.90
1786;DHT22;890;48.158;11.540;2023-11-19T10:30:22;14.50;99.90
1786;DHT22;890;48.158;11.540;2023-11-19T10:33:11;14.60;99.90
1786;DHT22;890;48.158;11.540;2023-11-19T10:35:57;14.60;99.90
1786;DHT22;890;48.158;11.540;2023-11-19T10:38:24;14.60;99.90
1786;DHT22;890;48.158;11.540;2023-11-19T10:40:50;14.60;99.90
1786;DHT22;890;48.158;11.540;2023-11-19T10:43:17;14.60;99.90
1786;DHT22;890;48.158;11.540;2023-11-19T10:45:43;14.70;99.90
1786;DHT22;890;48.158;11.540;2023-11-19T10:48:09;14.80;99.90
1786;DHT22;890;48.158;11.540;2023-11-19T10:50:36;14.90;99.90
1786;DHT22;890;48.158;11.540;2023-11-19T10:53:02;15.10;99.90
1786;DHT22;890;48.158;11.540;2023-11-19T10:55:38;15.30;99.90
1786;DHT22;890;48.158;11.540;2023-11-19T10:58:08;15.30;99.90
1786;DHT22;890;48.158;11.540;2023-11-19T11:00:55;15.20;99.90
1786;DHT22;890;48.158;11.540;2023-11-19T11:03:25;15.00;99.90
1786;DHT22;890;48.158;11.540;2023-11-19T11:05:51;15.00;99.90
1786;DHT22;890;48.158;11.540;2023-11-19T11:08:18;15.00;99.90
1786;DHT22;890;48.158;11.540;2023-11-19T11:10:54;15.10;99.90
1786;DHT22;890;48.158;11.540;2023-11-19T11:13:22;15.10;99.90
1786;DHT22;890;48.158;11.540;2023-11-19T11:15:49;15.30;99.90
1786;DHT22;890;48.158;11.540;2023-11-19T11:18:16;15.30;99.90
1786;DHT22;890;48.158;11.540;2023-11-19T11:20:44;15.20;99.90
1786;DHT22;890;48.158;11.540;2023-11-19T11:23:28;15.10;99.90
1786;DHT22;890;48.158;11.540;2023-11-19T11:26:20;15.00;99.90
1786;DHT22;890;48.158;11.540;2023-11-19T11:28:56;14.90;99.90
1786;DHT22;890;48.158;11.540;2023-11-19T11:35:26;14.90;99.90
1786;DHT22;890;48.158;11.540;2023-11-19T11:37:50;15.20;99.90
1786;DHT22;890;48.158;11.540;2023-11-19T11:40:18;15.40;99.90
1786;DHT22;890;48.158;11.540;2023-11-19T11:42:47;16.10;99.90
1786;DHT22;890;48.158;11.540;2023-11-19T11:45:14;16.70;99.90
1786;DHT22;890;48.158;11.540;2023-11-19T11:50:15;16.50;99.90
1786;DHT22;890;48.158;11.540;2023-11-19T11:55:28;16.80;99.90
1786;DHT22;890;48.158;11.540;2023-11-19T11:57:59;16.80;99.90
1786;DHT22;890;48.158;11.540;2023-11-19T12:00:38;16.80;99.90
1786;DHT22;890;48.158;11.540;2023-11-19T12:03:06;16.40;99.90
1786;DHT22;890;48.158;11.540;2023-11-19T12:05:33;16.40;99.90
1786;DHT22;890;48.158;11.540;2023-11-19T12:08:06;16.50;99.90
1786;DHT22;890;48.158;11.540;2023-11-19T12:10:46;16.50;99.90
1786;DHT22;890;48.158;11.540;2023-11-19T12:13:13;16.80;99.90
1786;DHT22;890;48.158;11.540;2023-11-19T12:18:27;17.10;99.90
1786;DHT22;890;48.158;11.540;2023-11-19T12:20:53;17.10;99.90
1786;DHT22;890;48.158;11.540;2023-11-19T12:23:19;16.70;98.10
1786;DHT22;890;48.158;11.540;2023-11-19T12:25:45;16.30;97.30
1786;DHT22;890;48.158;11.540;2023-11-19T12:28:15;16.20;96.90
1786;DHT22;890;48.158;11.540;2023-11-19T12:30:43;16.00;96.60
1786;DHT22;890;48.158;11.540;2023-11-19T12:33:09;15.90;96.10
1786;DHT22;890;48.158;11.540;2023-11-19T12:35:42;15.70;95.70
1786;DHT22;890;48.158;11.540;2023-11-19T12:38:22;15.50;95.90
1786;DHT22;890;48.158;11.540;2023-11-19T12:41:09;15.40;95.70
1786;DHT22;890;48.158;11.540;2023-11-19T12:43:39;15.30;95.60
1786;DHT22;890;48.158;11.540;2023-11-19T12:46:23;15.40;95.90
1786;DHT22;890;48.158;11.540;2023-11-19T12:48:49;15.50;95.70
1786;DHT22;890;48.158;11.540;2023-11-19T12:51:15;15.30;95.50
1786;DHT22;890;48.158;11.540;2023-11-19T12:53:51;15.40;95.70
1786;DHT22;890;48.158;11.540;2023-11-19T12:56:20;15.40;95.80
1786;DHT22;890;48.158;11.540;2023-11-19T12:58:47;15.50;95.50
1786;DHT22;890;48.158;11.540;2023-11-19T13:01:17;15.50;95.30
1786;DHT22;890;48.158;11.540;2023-11-19T13:03:43;15.50;95.10
1786;DHT22;890;48.158;11.540;2023-11-19T13:06:13;15.50;94.90
1786;DHT22;890;48.158;11.540;2023-11-19T13:08:46;15.40;94.80
1786;DHT22;890;48.158;11.540;2023-11-19T13:11:31;15.50;94.60
1786;DHT22;890;48.158;11.540;2023-11-19T13:13:58;15.50;94.50
1786;DHT22;890;48.158;11.540;2023-11-19T13:16:25;15.60;94.50
1786;DHT22;890;48.158;11.540;2023-11-19T13:18:51;15.70;94.50
1786;DHT22;890;48.158;11.540;2023-11-19T13:21:17;15.80;94.30
1786;DHT22;890;48.158;11.540;2023-11-19T13:23:43;15.80;94.20
1786;DHT22;890;48.158;11.540;2023-11-19T13:26:09;15.70;94.00
1786;DHT22;890;48.158;11.540;2023-11-19T13:28:36;15.70;93.90
1786;DHT22;890;48.158;11.540;2023-11-19T13:31:01;15.70;94.10
1786;DHT22;890;48.158;11.540;2023-11-19T13:33:28;15.70;94.40
1786;DHT22;890;48.158;11.540;2023-11-19T13:35:55;15.60;94.20
1786;DHT22;890;48.158;11.540;2023-11-19T13:38:20;15.50;94.30
1786;DHT22;890;48.158;11.540;2023-11-19T13:40:46;15.40;94.20
1786;DHT22;890;48.158;11.540;2023-11-19T13:43:12;15.30;94.10
1786;DHT22;890;48.158;11.540;2023-11-19T13:45:37;15.30;94.10
1786;DHT22;890;48.158;11.540;2023-11-19T13:48:03;15.30;94.20
1786;DHT22;890;48.158;11.540;2023-11-19T13:50:29;15.20;94.20
1786;DHT22;890;48.158;11.540;2023-11-19T13:52:54;15.20;94.20
1786;DHT22;890;48.158;11.540;2023-11-19T13:55:20;15.20;94.20
1786;DHT22;890;48.158;11.540;2023-11-19T13:57:47;15.20;94.20
1786;DHT22;890;48.158;11.540;2023-11-19T14:00:14;15.10;94.30
1786;DHT22;890;48.158;11.540;2023-11-19T14:02:48;15.10;94.30
1786;DHT22;890;48.158;11.540;2023-11-19T14:05:14;15.10;94.50
1786;DHT22;890;48.158;11.540;2023-11-19T14:07:43;15.10;94.60
1786;DHT22;890;48.158;11.540;2023-11-19T14:10:09;15.10;94.60
1786;DHT22;890;48.158;11.540;2023-11-19T14:12:39;15.00;94.50
1786;DHT22;890;48.158;11.540;2023-11-19T14:15:05;15.00;94.70
1786;DHT22;890;48.158;11.540;2023-11-19T14:17:32;14.90;94.80
1786;DHT22;890;48.158;11.540;2023-11-19T14:19:58;14.90;95.00
1786;DHT22;890;48.158;11.540;2023-11-19T14:22:23;14.90;95.10
1786;DHT22;890;48.158;11.540;2023-11-19T14:24:50;14.90;95.10
1786;DHT22;890;48.158;11.540;2023-11-19T14:27:16;14.90;95.10
1786;DHT22;890;48.158;11.540;2023-11-19T14:29:43;14.90;95.20
1786;DHT22;890;48.158;11.540;2023-11-19T14:32:10;14.80;95.30
1786;DHT22;890;48.158;11.540;2023-11-19T14:34:35;14.80;95.30
1786;DHT22;890;48.158;11.540;2023-11-19T14:37:01;14.80;95.30
1786;DHT22;890;48.158;11.540;2023-11-19T14:39:27;14.80;95.30
1786;DHT22;890;48.158;11.540;2023-11-19T14:41:52;14.70;95.20
1786;DHT22;890;48.158;11.540;2023-11-19T14:44:19;14.70;95.20
1786;DHT22;890;48.158;11.540;2023-11-19T14:46:46;14.70;95.20
1786;DHT22;890;48.158;11.540;2023-11-19T14:49:12;14.70;95.20
1786;DHT22;890;48.158;11.540;2023-11-19T14:51:39;14.70;95.10
1786;DHT22;890;48.158;11.540;2023-11-19T14:54:05;14.60;95.00
1786;DHT22;890;48.158;11.540;2023-11-19T14:56:31;14.60;95.10
1786;DHT22;890;48.158;11.540;2023-11-19T14:58:57;14.60;95.10
1786;DHT22;890;48.158;11.540;2023-11-19T15:01:24;14.50;95.10
1786;DHT22;890;48.158;11.540;2023-11-19T15:03:50;14.50;95.10
1786;DHT22;890;48.158;11.540;2023-11-19T15:06:15;14.50;95.10
1786;DHT22;890;48.158;11.540;2023-11-19T15:08:41;14.50;95.20
1786;DHT22;890;48.158;11.540;2023-11-19T15:11:07;14.40;95.20
1786;DHT22;890;48.158;11.540;2023-11-19T15:13:34;14.40;95.20
1786;DHT22;890;48.158;11.540;2023-11-19T15:16:02;14.40;95.20
1786;DHT22;890;48.158;11.540;2023-11-19T15:18:31;14.40;95.30
1786;DHT22;890;48.158;11.540;2023-11-19T15:20:56;14.30;95.40
1786;DHT22;890;48.158;11.540;2023-11-19T15:23:22;14.20;95.40
1786;DHT22;890;48.158;11.540;2023-11-19T15:25:47;14.20;95.50
1786;DHT22;890;48.158;11.540;2023-11-19T15:28:14;14.20;95.50
1786;DHT22;890;48.158;11.540;2023-11-19T15:30:40;15.90;96.80
1786;DHT22;890;48.158;11.540;2023-11-19T15:33:06;14.10;95.70
1786;DHT22;890;48.158;11.540;2023-11-19T15:35:34;14.00;95.80
1786;DHT22;890;48.158;11.540;2023-11-19T15:37:59;14.00;95.90
1786;DHT22;890;48.158;11.540;2023-11-19T15:40:25;14.00;96.10
1786;DHT22;890;48.158;11.540;2023-11-19T15:42:51;13.90;96.20
1786;DHT22;890;48.158;11.540;2023-11-19T15:45:18;13.90;96.30
1786;DHT22;890;48.158;11.540;2023-11-19T15:47:44;13.90;96.40
1786;DHT22;890;48.158;11.540;2023-11-19T15:50:09;13.80;96.40
1786;DHT22;890;48.158;11.540;2023-11-19T15:52:36;13.90;96.60
1786;DHT22;890;48.158;11.540;2023-11-19T15:55:01;13.80;96.70
1786;DHT22;890;48.158;11.540;2023-11-19T15:57:27;13.70;96.70
1786;DHT22;890;48.158;11.540;2023-11-19T15:59:52;13.70;96.80
1786;DHT22;890;48.158;11.540;2023-11-19T16:02:19;13.70;96.90
1786;DHT22;890;48.158;11.540;2023-11-19T16:04:44;13.70;97.10
1786;DHT22;890;48.158;11.540;2023-11-19T16:07:13;13.70;97.20
1786;DHT22;890;48.158;11.540;2023-11-19T16:09:39;13.70;97.30
1786;DHT22;890;48.158;11.540;2023-11-19T16:12:05;13.80;97.40
1786;DHT22;890;48.158;11.540;2023-11-19T16:14:31;13.80;97.40
1786;DHT22;890;48.158;11.540;2023-11-19T16:16:57;13.80;97.50